Time;durP1;ratioP1;P1;durP2;ratioP2;P2;SDS_P1;SDS_P2;PMS_P1;PMS_P2;Temp;Humidity;BMP_temperature;BMP_pressure;BME280_temperature;BME280_humidity;BME280_pressure;Samples;Min_cycle;Max_cycle;Signal;HPM_P1;HPM_P2
2022/02/02 00:00:35;;;;;;;12.05;8.75;;;;;;;3.12;60.18;100752.78;2583129;23;20452;-69
2022/02/02 00:03:01;;;;;;;12.90;9.02;;;;;;;3.10;59.96;100754.31;2573806;23;20141;-68
2022/02/02 00:04:01;;;;;;;13.50;8.80;;;;;;;3.10;59.78;100754.31;2569470;23;20205;-69
2022/02/02 00:05:17;;;;;;;14.17;9.37;;;;;;;3.06;59.74;100750.75;2569303;23;20203;-69
2022/02/02 00:06:28;;;;;;;12.35;8.73;;;;;;;3.07;59.51;100749.59;2583126;23;20136;-69
2022/02/02 00:07:32;;;;;;;12.73;8.77;;;;;;;3.07;59.90;100744.91;2583124;23;20592;-68
2022/02/02 00:08:51;;;;;;;14.30;9.07;;;;;;;1.67;59.52;100529.50;2583048;23;20148;-69
2022/02/02 00:09:58;;;;;;;11.20;8.80;;;;;;;3.05;59.63;100755.47;2583266;23;20132;-68
2022/02/02 00:12:23;;;;;;;12.13;9.32;;;;;;;3.01;59.62;100748.38;2583038;22;20260;-69
2022/02/02 00:15:54;;;;;;;11.03;8.50;;;;;;;3.02;59.86;100752.69;2582267;23;20163;-68
2022/02/02 00:17:01;;;;;;;11.68;8.23;;;;;;;3.01;60.05;100751.09;2583126;23;20193;-68
2022/02/02 00:18:15;;;;;;;13.10;8.68;;;;;;;2.98;60.05;100740.94;2583191;23;20164;-69
2022/02/02 00:20:34;;;;;;;13.38;9.20;;;;;;;3.00;59.88;100750.34;2583285;23;20424;-69
2022/02/02 00:22:40;;;;;;;15.20;10.55;;;;;;;2.97;60.02;100753.06;2583031;23;20183;-69
2022/02/02 00:23:45;;;;;;;12.57;9.40;;;;;;;2.99;59.66;100747.97;2581850;23;20416;-69
2022/02/02 00:25:59;;;;;;;11.17;8.67;;;;;;;1.89;59.60;100577.75;2582777;23;20209;-69
2022/02/02 00:27:04;;;;;;;12.45;9.75;;;;;;;2.97;60.08;100750.31;2583029;23;20132;-68
2022/02/02 00:28:06;;;;;;;12.98;9.77;;;;;;;2.90;60.20;100755.72;2583209;23;20163;-68
2022/02/02 00:29:15;;;;;;;14.52;9.63;;;;;;;2.94;60.20;100751.84;2583072;23;20152;-68
2022/02/02 00:30:19;;;;;;;12.23;8.93;;;;;;;2.89;59.89;100748.66;2582950;23;20189;-68
2022/02/02 00:31:26;;;;;;;13.73;9.63;;;;;;;2.62;60.65;100709.72;2582936;23;20226;-68
2022/02/02 00:33:11;;;;;;;11.25;8.77;;;;;;;1.80;59.73;100580.00;2583118;23;20136;-68
2022/02/02 00:34:01;;;;;;;12.50;9.68;;;;;;;2.72;60.50;100713.72;2577562;23;20656;-69
2022/02/02 00:35:02;;;;;;;12.13;9.45;;;;;;;2.83;59.88;100744.72;2582138;23;20495;-69
2022/02/02 00:36:08;;;;;;;12.77;9.05;;;;;;;2.81;59.91;100739.59;2583184;23;20179;-69
2022/02/02 00:37:09;;;;;;;14.05;9.70;;;;;;;2.81;60.10;100736.06;2583140;23;20216;-69
2022/02/02 00:38:09;;;;;;;11.63;8.93;;;;;;;1.94;59.50;100615.66;2583080;23;20155;-69
2022/02/02 00:39:10;;;;;;;12.67;9.60;;;;;;;2.63;59.59;100722.22;2582774;23;20231;-69
2022/02/02 00:40:11;;;;;;;13.55;9.73;;;;;;;2.63;59.14;100710.50;2583098;23;20167;-69
2022/02/02 00:41:12;;;;;;;12.13;9.30;;;;;;;2.78;59.22;100732.13;2582994;23;20148;-68
2022/02/02 00:42:12;;;;;;;16.50;10.40;;;;;;;2.79;59.66;100735.69;2583090;23;20206;-68
2022/02/02 00:43:13;;;;;;;16.47;10.00;;;;;;;2.78;59.30;100726.66;2582991;23;20594;-69
2022/02/02 00:44:17;;;;;;;14.17;9.70;;;;;;;2.79;59.52;100738.41;2582574;23;20170;-69
2022/02/02 00:45:19;;;;;;;12.88;10.00;;;;;;;2.81;59.61;100739.59;2582399;23;20160;-69
2022/02/02 00:46:25;;;;;;;16.42;10.40;;;;;;;2.82;59.45;100732.19;2582783;23;20175;-69
2022/02/02 00:47:27;;;;;;;14.57;9.07;;;;;;;2.81;59.58;100736.06;2582950;23;20137;-68
2022/02/02 00:48:32;;;;;;;16.30;10.13;;;;;;;2.82;59.50;100738.44;2583019;23;20724;-68
2022/02/02 00:49:32;;;;;;;15.88;9.88;;;;;;;2.84;58.93;100730.66;2582988;23;20190;-68
2022/02/02 00:50:33;;;;;;;14.43;10.10;;;;;;;2.81;59.17;100728.66;2582831;23;20187;-69
2022/02/02 00:51:43;;;;;;;15.80;10.30;;;;;;;2.32;59.03;100654.31;2582967;23;20492;-69
2022/02/02 00:52:49;;;;;;;19.10;9.90;;;;;;;2.79;59.15;100728.25;2582920;23;20209;-69
2022/02/02 00:53:50;;;;;;;14.05;8.93;;;;;;;2.77;59.34;100727.84;2582646;23;20143;-69
2022/02/02 00:54:51;;;;;;;13.27;9.97;;;;;;;2.73;59.18;100732.47;2582854;23;20159;-69
2022/02/02 00:55:53;;;;;;;14.83;10.00;;;;;;;2.46;59.55;100695.50;2582892;23;20149;-68
2022/02/02 00:56:55;;;;;;;15.00;9.85;;;;;;;2.71;59.35;100731.28;2582931;23;20143;-68
2022/02/02 00:57:55;;;;;;;14.18;10.02;;;;;;;2.72;58.95;100730.16;2583009;23;20596;-68
2022/02/02 00:58:56;;;;;;;14.37;9.63;;;;;;;2.62;59.02;100712.44;2582937;23;20551;-68
2022/02/02 00:59:58;;;;;;;13.80;9.60;;;;;;;2.70;58.96;100724.25;2583036;23;20159;-69
2022/02/02 01:00:58;;;;;;;13.73;10.05;;;;;;;2.51;59.50;100703.34;2582904;23;20144;-69
2022/02/02 01:01:59;;;;;;;15.67;10.17;;;;;;;2.62;60.19;100722.63;2582942;23;20641;-69
2022/02/02 01:03:00;;;;;;;14.35;11.35;;;;;;;2.57;59.98;100712.78;2582872;23;20153;-68
2022/02/02 01:04:00;;;;;;;15.87;9.97;;;;;;;2.69;59.48;100723.47;2582508;23;20621;-68
2022/02/02 01:05:01;;;;;;;16.23;9.30;;;;;;;2.66;58.98;100716.00;2582430;23;20152;-68
2022/02/02 01:06:03;;;;;;;12.70;9.17;;;;;;;2.65;58.80;100716.38;2582906;23;20182;-68
2022/02/02 01:07:20;;;;;;;9.70;7.57;;;;;;;2.61;58.47;100721.03;2582988;23;20159;-69
2022/02/02 01:10:12;;;;;;;14.43;9.15;;;;;;;2.54;58.28;100718.22;2582913;23;20601;-68
2022/02/02 01:11:02;;;;;;;12.25;8.90;;;;;;;2.48;58.70;100715.06;2566479;23;20195;-68
2022/02/02 01:13:20;;;;;;;13.03;9.57;;;;;;;2.41;58.38;100706.00;2582836;23;20608;-68
2022/02/02 01:18:14;;;;;;;11.60;8.03;;;;;;;2.24;58.55;100704.66;2583040;23;20175;-68
2022/02/02 01:27:51;;;;;;;13.55;9.55;;;;;;;2.02;60.21;100704.78;2583003;23;20144;-68
2022/02/02 01:28:51;;;;;;;14.82;10.60;;;;;;;1.12;60.25;100569.44;2582781;23;20624;-68
2022/02/02 01:29:52;;;;;;;15.63;11.57;;;;;;;1.99;60.64;100706.31;2582903;23;20601;-69
2022/02/02 01:30:53;;;;;;;14.07;11.30;;;;;;;2.00;60.28;100701.63;2582743;23;20576;-69
2022/02/02 01:31:54;;;;;;;15.97;10.50;;;;;;;1.99;60.03;100705.50;2569435;23;20232;-68
2022/02/02 01:32:54;;;;;;;11.73;10.23;;;;;;;1.97;59.96;100696.91;2569535;23;20228;-68
2022/02/02 01:33:55;;;;;;;15.50;11.67;;;;;;;1.79;60.42;100671.31;2582430;23;20657;-68
2022/02/02 01:34:55;;;;;;;15.63;10.07;;;;;;;1.96;60.11;100693.38;2582270;23;20178;-68
2022/02/02 01:35:57;;;;;;;19.80;13.70;;;;;;;1.96;60.49;100695.34;2582860;23;20155;-68
2022/02/02 01:36:58;;;;;;;15.95;11.45;;;;;;;1.44;60.29;100610.81;2582769;23;20228;-68
2022/02/02 01:37:59;;;;;;;16.37;10.47;;;;;;;1.95;60.97;100691.81;2582965;23;20617;-68
2022/02/02 01:39:00;;;;;;;18.42;13.60;;;;;;;0.81;60.89;100517.97;2582616;23;20227;-68
2022/02/02 01:40:08;;;;;;;15.43;11.87;;;;;;;1.89;60.88;100693.31;2582838;23;20609;-68
2022/02/02 01:41:17;;;;;;;16.55;12.05;;;;;;;0.83;60.76;100521.09;2582828;23;20403;-68
2022/02/02 01:42:19;;;;;;;17.38;11.68;;;;;;;1.90;60.67;100681.22;2582876;23;20135;-68
2022/02/02 01:43:24;;;;;;;19.10;12.18;;;;;;;1.69;61.03;100642.72;2582771;23;20147;-68
2022/02/02 01:45:40;;;;;;;20.42;13.25;;;;;;;1.77;61.21;100658.03;2582133;23;20151;-69
2022/02/02 01:46:42;;;;;;;18.40;12.18;;;;;;;1.66;61.32;100642.66;2582974;23;20407;-68
2022/02/02 01:47:55;;;;;;;16.98;11.57;;;;;;;1.97;60.89;100688.72;2582767;23;20186;-68
2022/02/02 01:49:17;;;;;;;18.17;13.40;;;;;;;1.95;60.87;100680.88;2582692;23;20136;-68
2022/02/02 01:50:22;;;;;;;17.88;12.00;;;;;;;1.97;60.85;100678.56;2582375;23;20155;-68
2022/02/02 01:55:44;;;;;;;19.13;14.20;;;;;;;2.00;61.68;100671.56;2582085;23;20152;-68
2022/02/02 01:56:44;;;;;;;23.43;13.17;;;;;;;1.37;61.34;100602.50;2582680;23;20168;-68
2022/02/02 01:59:53;;;;;;;20.67;13.95;;;;;;;2.06;60.95;100675.53;2582938;23;20238;-68
2022/02/02 02:00:53;;;;;;;20.75;14.68;;;;;;;2.06;61.10;100670.84;2582686;23;20151;-68
2022/02/02 02:01:54;;;;;;;21.10;14.27;;;;;;;2.09;60.92;100678.31;2582858;23;20148;-68
2022/02/02 02:02:55;;;;;;;23.50;15.90;;;;;;;2.07;60.74;100671.66;2582619;23;20159;-68
2022/02/02 02:03:57;;;;;;;23.87;15.93;;;;;;;2.07;61.08;100697.03;2582289;23;20159;-68
2022/02/02 02:04:57;;;;;;;22.88;16.67;;;;;;;2.07;61.55;100663.44;2582269;23;20156;-69
2022/02/02 02:05:58;;;;;;;20.97;16.23;;;;;;;2.10;61.19;100673.66;2582730;23;20621;-69
2022/02/02 02:06:58;;;;;;;23.93;16.67;;;;;;;2.15;61.43;100682.28;2582725;23;20149;-68
2022/02/02 02:07:59;;;;;;;23.90;16.93;;;;;;;1.39;60.72;100549.09;2582838;23;20148;-68
2022/02/02 02:08:59;;;;;;;23.40;15.87;;;;;;;2.19;60.95;100674.91;2569311;23;20184;-69
2022/02/02 02:10:00;;;;;;;23.93;16.07;;;;;;;2.19;60.53;100680.38;2569512;23;20239;-68
2022/02/02 02:11:02;;;;;;;21.03;15.40;;;;;;;2.19;60.75;100671.38;2582659;23;20645;-68
2022/02/02 02:12:05;;;;;;;20.90;14.57;;;;;;;2.20;60.69;100676.47;2582570;23;20480;-68
2022/02/02 02:13:15;;;;;;;21.75;15.75;;;;;;;1.26;60.45;100522.44;2582771;23;20194;-68
2022/02/02 02:15:32;;;;;;;20.88;14.95;;;;;;;2.21;60.70;100671.81;2582054;23;20137;-68
2022/02/02 02:16:32;;;;;;;21.02;13.77;;;;;;;1.19;60.09;100512.19;2582742;23;20177;-68
2022/02/02 02:17:33;;;;;;;24.83;16.60;;;;;;;2.21;60.41;100669.84;2582748;23;20145;-68
2022/02/02 02:18:33;;;;;;;23.67;16.00;;;;;;;2.23;60.62;100664.00;2582697;23;20602;-68
2022/02/02 02:19:37;;;;;;;21.90;15.40;;;;;;;2.11;60.06;100634.22;2582745;23;20231;-68
2022/02/02 02:20:40;;;;;;;21.60;14.63;;;;;;;1.74;59.61;100600.59;2582514;23;20608;-68
2022/02/02 02:21:43;;;;;;;21.27;15.25;;;;;;;2.24;59.98;100680.03;2582810;23;20157;-68
2022/02/02 02:22:44;;;;;;;24.20;15.93;;;;;;;2.21;59.87;100661.63;2581768;23;20156;-68
2022/02/02 02:23:47;;;;;;;26.75;16.58;;;;;;;2.16;60.12;100664.72;2581372;23;20573;-68
2022/02/02 02:24:48;;;;;;;18.42;14.25;;;;;;;2.16;60.17;100661.97;2569205;23;20156;-69
2022/02/02 02:25:49;;;;;;;23.88;15.88;;;;;;;1.36;60.11;100549.06;2568947;23;20528;-68
2022/02/02 02:26:50;;;;;;;22.20;16.10;;;;;;;2.10;60.71;100657.25;2582620;23;20176;-68
2022/02/02 02:27:51;;;;;;;19.17;14.60;;;;;;;2.10;60.58;100657.25;2569360;23;20160;-69
2022/02/02 02:29:13;;;;;;;21.63;16.42;;;;;;;2.10;60.86;100659.97;2569576;23;20153;-69
2022/02/02 02:30:40;;;;;;;21.20;15.10;;;;;;;2.03;60.45;100638.81;2582685;23;20143;-69
2022/02/02 02:31:59;;;;;;;20.15;14.70;;;;;;;0.99;60.41;100490.91;2582857;23;20128;-69
2022/02/02 02:55:58;;;;;;;26.92;17.30;;;;;;;1.47;61.08;100582.75;2582148;23;20212;-68
2022/02/02 02:56:59;;;;;;;25.30;16.90;;;;;;;1.86;61.19;100627.69;2582621;23;20138;-68
2022/02/02 02:58:33;;;;;;;23.60;17.53;;;;;;;1.77;61.28;100616.25;2583177;23;20613;-68
2022/02/02 02:59:39;;;;;;;25.35;16.80;;;;;;;1.84;61.42;100635.44;2583162;23;20152;-68
2022/02/02 03:34:44;;;;;;;24.35;15.57;;;;;;;1.31;64.28;100644.94;2583001;23;20140;-69
2022/02/02 03:49:52;;;;;;;22.88;13.23;;;;;;;1.45;63.05;100623.28;2583109;23;20164;-69
2022/02/02 03:50:54;;;;;;;23.97;13.73;;;;;;;1.65;62.71;100652.03;2556829;23;20222;-69
2022/02/02 03:53:41;;;;;;;21.70;13.52;;;;;;;1.68;62.77;100651.28;2544396;23;20503;-69
2022/02/02 04:05:35;;;;;;;18.38;12.02;;;;;;;1.21;61.51;100537.19;2582541;23;20140;-69
2022/02/02 04:06:44;;;;;;;20.67;12.32;;;;;;;1.89;61.72;100644.13;2583091;23;20127;-69
2022/02/02 04:07:51;;;;;;;19.35;12.65;;;;;;;1.52;61.72;100590.59;2583201;23;20136;-69
2022/02/02 04:08:52;;;;;;;19.77;12.73;;;;;;;1.80;61.34;100626.47;2583156;23;20369;-69
2022/02/02 04:09:53;;;;;;;19.93;12.30;;;;;;;1.39;61.19;100568.22;2583196;23;20147;-69
2022/02/02 04:10:58;;;;;;;19.40;12.30;;;;;;;1.85;61.32;100650.72;2582969;23;20224;-69
2022/02/02 04:12:53;;;;;;;19.50;12.68;;;;;;;1.67;61.36;100616.91;2583027;23;20136;-69
2022/02/02 04:58:02;;;;;;;21.13;11.30;;;;;;;1.03;61.10;100672.63;2582906;23;20139;-69
2022/02/02 05:02:56;;;;;;;20.23;10.70;;;;;;;1.07;60.96;100673.47;2556939;23;20207;-69
2022/02/02 05:03:52;;;;;;;20.92;11.32;;;;;;;1.09;61.55;100673.09;2581877;23;20159;-69
2022/02/02 05:06:34;;;;;;;20.50;11.02;;;;;;;1.09;61.59;100670.38;2520227;23;20184;-69
2022/02/02 05:07:44;;;;;;;20.08;11.25;;;;;;;0.93;61.82;100656.88;2520247;23;20166;-69
2022/02/02 05:13:58;;;;;;;25.55;15.32;;;;;;;1.12;62.11;100673.16;2535532;23;20264;-69
2022/02/02 05:16:23;;;;;;;21.23;11.85;;;;;;;0.36;61.72;100577.28;2570561;23;20142;-69
2022/02/02 05:18:19;;;;;;;21.08;12.05;;;;;;;1.21;61.12;100678.34;2570457;23;20133;-69
2022/02/02 05:23:29;;;;;;;19.95;11.48;;;;;;;1.20;60.67;100682.22;2570371;23;20136;-69
2022/02/02 05:41:17;;;;;;;24.98;12.15;;;;;;;0.38;59.83;100547.72;2569940;23;20582;-69
2022/02/02 05:51:24;;;;;;;24.20;13.70;;;;;;;1.15;59.69;100701.66;2527954;23;20273;-69
2022/02/02 05:52:25;;;;;;;24.50;12.10;;;;;;;1.13;60.24;100717.63;2529585;23;20147;-69
2022/02/02 05:53:26;;;;;;;22.45;12.73;;;;;;;1.15;60.45;100698.91;2539771;23;20610;-69
2022/02/02 05:54:27;;;;;;;25.42;13.30;;;;;;;1.15;60.28;100709.84;2568718;23;20144;-69
2022/02/02 05:55:54;;;;;;;20.53;12.90;;;;;;;1.15;60.16;100707.91;2568883;23;20149;-69
2022/02/02 05:56:55;;;;;;;24.42;12.98;;;;;;;0.10;59.48;100556.19;2564729;23;20632;-69
2022/02/02 05:57:57;;;;;;;28.50;13.13;;;;;;;1.16;59.95;100711.41;2569883;23;20148;-69
2022/02/02 05:58:59;;;;;;;21.13;13.18;;;;;;;1.17;59.66;100710.25;2569174;23;20455;-69
2022/02/02 06:00:00;;;;;;;25.67;13.43;;;;;;;1.17;59.86;100710.25;2563058;23;20159;-69
2022/02/02 06:01:01;;;;;;;23.73;13.47;;;;;;;0.92;59.86;100674.41;2564974;23;20180;-69
2022/02/02 06:02:02;;;;;;;24.98;12.85;;;;;;;1.07;59.71;100695.28;2566307;23;20184;-69
2022/02/02 06:03:14;;;;;;;23.20;12.65;;;;;;;1.15;60.11;100707.09;2568603;23;20153;-69
2022/02/02 06:04:19;;;;;;;20.83;12.32;;;;;;;1.08;60.32;100688.69;2568227;23;20144;-69
2022/02/02 06:05:25;;;;;;;22.05;12.45;;;;;;;1.16;60.32;100711.41;2568727;23;20148;-69
2022/02/02 06:06:26;;;;;;;21.63;12.52;;;;;;;1.19;60.39;100710.69;2568326;23;20161;-69
2022/02/02 06:07:28;;;;;;;23.90;13.83;;;;;;;1.22;60.48;100712.66;2568290;23;20158;-69
2022/02/02 06:08:30;;;;;;;24.23;14.07;;;;;;;1.22;60.61;100715.38;2568777;23;20600;-69
2022/02/02 06:09:36;;;;;;;23.13;13.65;;;;;;;1.23;60.50;100715.03;2567640;23;20199;-69
2022/02/02 06:10:38;;;;;;;24.13;13.98;;;;;;;1.26;59.99;100716.25;2568055;23;20144;-69
2022/02/02 06:11:40;;;;;;;26.50;14.52;;;;;;;0.17;60.67;100556.31;2568309;23;20155;-69
2022/02/02 06:12:44;;;;;;;24.17;14.48;;;;;;;0.09;60.63;100529.31;2579372;23;20203;-69
2022/02/02 06:13:51;;;;;;;25.13;14.25;;;;;;;1.35;60.83;100720.28;2579534;23;20147;-69
2022/02/02 06:14:53;;;;;;;22.63;14.13;;;;;;;1.35;60.24;100725.72;2568695;23;20354;-69
2022/02/02 06:15:53;;;;;;;21.83;13.25;;;;;;;1.39;59.84;100720.34;2567960;23;20552;-69
2022/02/02 06:16:58;;;;;;;23.50;13.90;;;;;;;0.57;59.97;100593.97;2568433;23;20236;-69
2022/02/02 06:18:02;;;;;;;27.33;14.40;;;;;;;1.42;60.48;100720.38;2569245;23;20505;-69
2022/02/02 06:19:02;;;;;;;25.08;14.27;;;;;;;1.48;59.84;100729.03;2569118;23;20153;-69
2022/02/02 06:20:03;;;;;;;23.87;14.10;;;;;;;1.48;59.68;100726.31;2569054;23;20182;-69
2022/02/02 06:21:06;;;;;;;23.80;14.53;;;;;;;0.58;59.69;100577.22;2568385;23;20199;-69
2022/02/02 06:22:20;;;;;;;22.17;13.90;;;;;;;1.51;59.53;100731.84;2569604;23;20210;-69
2022/02/02 06:23:29;;;;;;;23.02;14.20;;;;;;;1.46;59.55;100717.69;2568469;23;20148;-69
2022/02/02 06:24:33;;;;;;;25.40;14.30;;;;;;;1.58;59.45;100728.41;2569924;23;20156;-69
2022/02/02 06:25:41;;;;;;;26.42;14.73;;;;;;;0.57;59.09;100594.75;2579923;23;20221;-69
2022/02/02 06:26:46;;;;;;;26.67;14.63;;;;;;;1.51;59.53;100712.72;2568995;23;20140;-69
2022/02/02 06:27:56;;;;;;;26.05;14.30;;;;;;;1.60;59.40;100728.84;2569436;23;20149;-69
2022/02/02 06:29:01;;;;;;;24.25;13.95;;;;;;;1.62;59.54;100731.97;2569675;23;20416;-69
2022/02/02 06:30:07;;;;;;;25.02;15.15;;;;;;;1.65;59.29;100734.75;2569322;23;20156;-69
2022/02/02 06:31:11;;;;;;;25.67;14.32;;;;;;;1.64;59.62;100727.72;2568927;23;20176;-69
2022/02/02 06:32:14;;;;;;;27.10;15.00;;;;;;;1.65;59.43;100740.22;2569606;23;20238;-69
2022/02/02 06:33:16;;;;;;;25.25;14.70;;;;;;;1.58;59.88;100731.13;2570225;23;20234;-69
2022/02/02 06:34:22;;;;;;;28.42;13.77;;;;;;;1.49;59.28;100695.91;2570164;23;20215;-69
2022/02/02 06:35:23;;;;;;;23.90;14.88;;;;;;;1.51;59.48;100712.72;2570155;23;20539;-69
2022/02/02 06:36:28;;;;;;;28.90;15.03;;;;;;;1.74;59.35;100735.25;2570849;23;20222;-69
2022/02/02 06:37:29;;;;;;;28.15;15.77;;;;;;;1.80;59.19;100733.00;2569867;23;20149;-69
2022/02/02 06:38:31;;;;;;;25.00;15.03;;;;;;;1.79;58.76;100729.47;2569305;23;20152;-69
2022/02/02 06:39:33;;;;;;;25.50;15.13;;;;;;;1.80;59.22;100733.78;2570233;23;20152;-69
2022/02/02 06:40:33;;;;;;;25.85;15.85;;;;;;;1.81;59.50;100731.84;2569627;23;20205;-69
2022/02/02 06:41:35;;;;;;;27.00;15.33;;;;;;;1.15;59.19;100626.03;2570112;23;20176;-69
2022/02/02 06:42:36;;;;;;;24.23;15.27;;;;;;;1.91;59.14;100731.97;2569667;23;20151;-69
2022/02/02 06:43:37;;;;;;;27.33;15.95;;;;;;;1.96;58.97;100726.16;2569207;23;20163;-69
2022/02/02 06:44:41;;;;;;;24.70;15.57;;;;;;;1.89;59.04;100709.69;2569785;23;20162;-69
2022/02/02 06:45:42;;;;;;;27.35;17.23;;;;;;;2.01;58.94;100731.31;2569739;23;20162;-69
2022/02/02 06:46:45;;;;;;;26.80;16.48;;;;;;;1.93;59.21;100724.19;2570044;23;20144;-69
2022/02/02 06:47:47;;;;;;;31.73;17.75;;;;;;;1.98;58.93;100732.06;2569845;23;20148;-69
2022/02/02 06:48:48;;;;;;;31.80;19.65;;;;;;;1.99;58.74;100725.44;2569922;23;20178;-69
2022/02/02 06:49:50;;;;;;;31.80;20.30;;;;;;;2.05;58.95;100723.94;2569950;23;20626;-69
2022/02/02 06:51:06;;;;;;;34.63;20.27;;;;;;;2.07;58.78;100723.59;2569408;23;20184;-69
2022/02/02 06:52:18;;;;;;;32.00;20.10;;;;;;;2.09;58.88;100719.31;2569861;23;20597;-69
2022/02/02 06:53:30;;;;;;;30.27;18.30;;;;;;;2.12;58.87;100724.06;2570011;23;20140;-69
2022/02/02 06:54:49;;;;;;;28.50;17.48;;;;;;;2.11;59.03;100727.16;2569630;23;20128;-69
2022/02/02 06:56:47;;;;;;;28.08;17.45;;;;;;;1.87;59.06;100689.38;2570013;23;20605;-69
2022/02/02 06:57:49;;;;;;;28.30;16.35;;;;;;;2.10;59.34;100725.59;2561892;23;20160;-69
2022/02/02 07:00:37;;;;;;;26.88;16.90;;;;;;;1.23;59.17;100632.38;2570500;23;20600;-69
2022/02/02 07:03:06;;;;;;;29.33;16.90;;;;;;;2.02;59.42;100732.91;2570433;23;20784;-69
2022/02/02 07:04:35;;;;;;;28.48;16.27;;;;;;;2.12;59.52;100731.44;2570369;23;20163;-69
2022/02/02 07:05:51;;;;;;;25.10;15.95;;;;;;;2.06;59.61;100720.06;2570083;23;20153;-69
2022/02/02 07:07:08;;;;;;;28.17;17.05;;;;;;;2.16;59.47;100740.50;2569482;23;20206;-69
2022/02/02 07:09:20;;;;;;;25.92;16.60;;;;;;;2.19;59.26;100721.38;2570136;23;20624;-69
2022/02/02 07:10:11;;;;;;;25.05;16.25;;;;;;;2.25;59.18;100727.28;2559597;23;20162;-69
2022/02/02 07:11:21;;;;;;;27.40;17.50;;;;;;;2.27;59.48;100733.19;2570379;23;20179;-69
2022/02/02 07:13:13;;;;;;;31.55;18.15;;;;;;;2.30;59.00;100733.22;2578399;23;20206;-69
2022/02/02 07:15:16;;;;;;;31.08;18.02;;;;;;;2.28;58.50;100701.94;2582474;23;20221;-69
2022/02/02 07:16:33;;;;;;;27.67;16.88;;;;;;;2.35;59.05;100718.41;2583137;23;20139;-69
2022/02/02 07:17:45;;;;;;;26.88;15.60;;;;;;;2.42;58.90;100719.28;2583293;23;20139;-69
2022/02/02 07:28:30;;;;;;;26.30;15.05;;;;;;;3.08;57.94;100710.88;2544227;23;20210;-69
2022/02/02 07:29:46;;;;;;;24.17;14.90;;;;;;;3.15;57.67;100696.47;2551145;23;20169;-69
2022/02/02 07:31:01;;;;;;;23.08;14.20;;;;;;;3.20;57.23;100698.84;2582321;23;20221;-69
2022/02/02 07:32:17;;;;;;;27.10;15.00;;;;;;;3.17;57.61;100694.94;2583050;23;20591;-69
2022/02/02 07:33:29;;;;;;;26.00;14.52;;;;;;;3.08;57.92;100719.09;2582480;23;20596;-69
2022/02/02 07:36:27;;;;;;;25.80;13.90;;;;;;;2.88;57.21;100632.16;2582774;23;20219;-69
2022/02/02 07:37:32;;;;;;;23.55;14.70;;;;;;;3.01;57.77;100638.88;2582722;23;20127;-69
2022/02/02 07:38:56;;;;;;;21.92;14.00;;;;;;;3.47;57.69;100703.72;2583201;23;20151;-69
2022/02/02 07:39:59;;;;;;;23.83;13.90;;;;;;;2.81;57.68;100585.56;2582976;23;20136;-69
2022/02/02 07:41:07;;;;;;;24.25;14.35;;;;;;;3.56;58.07;100701.44;2582410;23;20170;-69
2022/02/02 07:42:10;;;;;;;23.05;14.82;;;;;;;3.60;58.05;100704.97;2582492;23;20136;-69
2022/02/02 07:43:30;;;;;;;23.80;14.73;;;;;;;3.45;58.18;100666.94;2582656;23;20247;-69
2022/02/02 07:44:36;;;;;;;25.67;14.13;;;;;;;3.63;58.09;100704.22;2581871;23;20135;-69
2022/02/02 07:45:37;;;;;;;25.08;14.70;;;;;;;3.73;58.55;100703.47;2581783;23;20136;-69
2022/02/02 07:46:45;;;;;;;25.03;15.27;;;;;;;3.75;58.46;100700.38;2581807;23;20155;-67
2022/02/02 07:47:53;;;;;;;22.85;12.88;;;;;;;3.81;57.90;100696.88;2577663;23;20381;-66
2022/02/02 07:48:54;;;;;;;23.15;12.65;;;;;;;3.80;58.01;100703.50;2582153;23;20155;-66
2022/02/02 07:49:57;;;;;;;22.40;12.83;;;;;;;3.90;57.71;100702.78;2580773;23;20148;-67
2022/02/02 07:50:58;;;;;;;19.65;12.43;;;;;;;3.99;57.00;100697.72;2582240;23;20561;-67
2022/02/02 07:51:59;;;;;;;20.05;12.20;;;;;;;4.13;57.46;100700.53;2582600;23;20590;-66
2022/02/02 07:53:06;;;;;;;21.27;12.70;;;;;;;3.50;57.07;100590.63;2582534;23;20497;-62
2022/02/02 07:54:15;;;;;;;20.08;12.38;;;;;;;3.16;56.68;100541.97;2583085;23;20213;-62
2022/02/02 07:55:18;;;;;;;22.10;11.68;;;;;;;4.16;56.67;100697.00;2582354;23;20136;-61
2022/02/02 07:56:27;;;;;;;20.40;11.43;;;;;;;4.23;56.84;100690.75;2583254;23;20147;-62
2022/02/02 07:57:28;;;;;;;19.17;11.50;;;;;;;4.29;55.65;100694.69;2582805;23;20136;-62
2022/02/02 07:58:30;;;;;;;20.20;10.80;;;;;;;4.34;55.65;100697.84;2582838;23;20308;-64
2022/02/02 08:00:06;;;;;;;17.83;10.70;;;;;;;4.41;56.12;100695.09;2569294;23;20172;-62
2022/02/02 08:00:58;;;;;;;18.63;10.85;;;;;;;4.51;55.07;100712.78;2574387;23;20190;-62
2022/02/02 08:02:01;;;;;;;19.58;10.95;;;;;;;4.62;54.69;100691.63;2583025;23;20159;-62
2022/02/02 08:03:11;;;;;;;16.02;10.52;;;;;;;4.69;54.63;100692.41;2582545;23;20156;-65
2022/02/02 08:04:13;;;;;;;22.45;11.27;;;;;;;4.68;55.15;100706.53;2581167;23;20148;-64
2022/02/02 08:05:15;;;;;;;22.15;11.68;;;;;;;4.69;54.04;100688.88;2580823;23;20156;-63
2022/02/02 08:06:21;;;;;;;17.13;10.63;;;;;;;4.85;54.65;100703.00;2582651;23;20230;-64
2022/02/02 08:07:27;;;;;;;18.38;10.85;;;;;;;4.76;53.67;100697.09;2582804;23;20137;-62
2022/02/02 08:08:32;;;;;;;18.90;10.38;;;;;;;4.76;53.95;100705.34;2581460;23;20166;-63
2022/02/02 08:09:42;;;;;;;17.33;9.88;;;;;;;4.77;53.83;100696.72;2582307;23;20209;-63
2022/02/02 08:10:46;;;;;;;19.27;10.95;;;;;;;4.36;53.93;100631.63;2579428;23;20143;-63
2022/02/02 08:11:47;;;;;;;17.08;11.10;;;;;;;4.85;54.06;100703.00;2580581;23;20190;-63
2022/02/02 08:12:56;;;;;;;18.77;10.70;;;;;;;4.94;53.03;100704.19;2581633;23;20151;-63
2022/02/02 08:13:59;;;;;;;17.52;10.75;;;;;;;5.03;52.77;100709.28;2582396;23;20158;-62
2022/02/02 08:15:00;;;;;;;20.55;11.55;;;;;;;5.08;52.52;100693.19;2581731;23;20152;-63
2022/02/02 08:16:05;;;;;;;22.27;10.37;;;;;;;5.11;52.02;100686.13;2582219;23;20154;-70
2022/02/02 08:17:06;;;;;;;19.00;10.98;;;;;;;5.07;52.27;100679.88;2582261;23;20604;-70
2022/02/02 08:18:06;;;;;;;17.52;10.35;;;;;;;3.86;52.06;100492.88;2582614;23;20199;-69
2022/02/02 08:19:07;;;;;;;20.27;9.40;;;;;;;5.15;51.15;100695.16;2580977;23;20233;-67
2022/02/02 08:20:08;;;;;;;18.20;9.60;;;;;;;5.18;51.35;100688.88;2582538;23;20608;-66
2022/02/02 08:21:08;;;;;;;18.07;9.93;;;;;;;4.98;51.72;100660.25;2583124;23;20155;-65
2022/02/02 08:22:09;;;;;;;16.33;9.23;;;;;;;4.33;51.34;100563.78;2583189;23;20604;-65
2022/02/02 08:23:09;;;;;;;17.27;9.30;;;;;;;5.22;51.34;100695.94;2582927;23;20502;-64
2022/02/02 08:24:11;;;;;;;17.03;9.97;;;;;;;5.22;51.36;100700.63;2582238;23;20152;-63
2022/02/02 08:25:33;;;;;;;19.42;9.75;;;;;;;5.24;52.04;100695.53;2582854;23;20178;-63
2022/02/02 08:26:33;;;;;;;16.00;7.82;;;;;;;5.22;50.12;100697.88;2583167;23;20563;-63
2022/02/02 08:27:40;;;;;;;18.40;9.57;;;;;;;5.25;50.41;100700.66;2569704;23;20570;-64
2022/02/02 08:28:45;;;;;;;16.70;8.90;;;;;;;5.21;50.80;100688.88;2570093;23;20243;-63
2022/02/02 08:29:46;;;;;;;19.48;10.25;;;;;;;4.90;50.98;100637.50;2583191;23;20543;-64
2022/02/02 08:30:49;;;;;;;19.65;9.70;;;;;;;5.30;50.93;100700.25;2582629;23;20184;-63
2022/02/02 08:31:49;;;;;;;17.85;9.75;;;;;;;5.36;50.66;100689.63;2582719;23;20227;-63
2022/02/02 08:33:00;;;;;;;14.13;8.40;;;;;;;5.35;51.26;100696.31;2581727;23;20151;-65
2022/02/02 08:34:08;;;;;;;16.45;9.00;;;;;;;5.44;50.96;100689.22;2582495;23;20574;-64
2022/02/02 08:35:09;;;;;;;17.35;9.15;;;;;;;5.46;50.75;100688.81;2581679;23;20147;-63
2022/02/02 08:36:14;;;;;;;14.88;9.13;;;;;;;5.41;50.97;100690.00;2582422;23;20153;-62
2022/02/02 08:37:15;;;;;;;16.17;9.20;;;;;;;5.45;50.18;100685.31;2568673;23;20148;-63
2022/02/02 08:42:30;;;;;;;16.45;9.18;;;;;;;5.89;49.66;100682.06;2582833;23;20149;-66
2022/02/02 08:43:41;;;;;;;18.63;9.55;;;;;;;5.91;49.48;100685.97;2582619;23;20223;-64
2022/02/02 08:44:51;;;;;;;16.50;9.80;;;;;;;5.21;49.83;100573.47;2582866;23;20530;-65
2022/02/02 08:45:55;;;;;;;16.92;8.57;;;;;;;6.01;48.70;100685.13;2583042;23;20139;-66